Time;durP1;ratioP1;P1;durP2;ratioP2;P2;SDS_P1;SDS_P2;PMS_P1;PMS_P2;Temp;Humidity;BMP_temperature;BMP_pressure;BME280_temperature;BME280_humidity;BME280_pressure;Samples;Min_cycle;Max_cycle;Signal;HPM_P1;HPM_P2
2023/09/09 00:00:07;;;;;;;2.92;2.83;;;21.00;99.90;;;21.49;84.91;101500.81;5045677;28;20202;-70
2023/09/09 00:02:40;;;;;;;2.70;2.60;;;21.00;99.90;;;21.43;84.94;101501.06;5044379;28;20468;-70
2023/09/09 00:05:09;;;;;;;2.50;2.40;;;20.90;99.90;;;21.40;85.00;101503.88;5036286;28;20467;-70
2023/09/09 00:07:37;;;;;;;2.33;2.22;;;20.90;99.90;;;21.36;85.50;101504.94;5036500;28;20095;-70
2023/09/09 00:10:07;;;;;;;2.10;2.00;;;20.80;99.90;;;21.36;85.25;101504.94;5043888;28;20053;-70
2023/09/09 00:12:35;;;;;;;2.40;2.30;;;20.80;99.90;;;21.45;85.16;101507.25;5044946;28;20051;-70
2023/09/09 00:15:08;;;;;;;2.22;2.13;;;20.90;99.90;;;21.43;85.04;101509.13;5036239;28;20049;-70
2023/09/09 00:17:36;;;;;;;2.63;2.53;;;20.90;99.90;;;21.38;84.75;101512.03;5048000;28;20429;-70
2023/09/09 00:20:09;;;;;;;1.80;1.80;;;20.90;99.90;;;21.36;84.48;101510.31;5041614;28;20098;-70
2023/09/09 00:22:38;;;;;;;2.08;1.98;;;20.90;99.90;;;21.44;84.77;101505.53;5038507;28;20045;-70
2023/09/09 00:25:08;;;;;;;2.30;2.20;;;20.90;99.90;;;21.15;84.62;101468.09;5048093;28;20045;-70
2023/09/09 00:27:36;;;;;;;2.55;2.45;;;20.90;99.90;;;21.33;85.20;101505.94;5038948;28;20138;-70
2023/09/09 00:30:06;;;;;;;3.38;3.28;;;20.90;99.90;;;21.26;85.19;101501.72;5041931;28;20759;-70
2023/09/09 00:32:35;;;;;;;2.50;2.40;;;20.70;99.90;;;21.26;85.06;101500.84;5047116;28;20600;-70
2023/09/09 00:35:04;;;;;;;2.15;2.05;;;20.70;99.90;;;21.16;84.83;101494.03;5036133;28;20092;-70
2023/09/09 00:37:33;;;;;;;2.72;2.63;;;20.60;99.90;;;21.13;85.21;101495.06;5045431;28;20113;-70
2023/09/09 00:40:04;;;;;;;2.50;2.40;;;20.60;99.90;;;21.09;83.92;101498.81;5043748;28;20072;-70
2023/09/09 00:42:32;;;;;;;2.40;2.30;;;20.60;99.90;;;21.08;83.18;101493.50;5051058;28;20052;-70
2023/09/09 00:45:01;;;;;;;2.58;2.47;;;20.60;99.90;;;21.04;83.23;101494.53;5064104;28;20041;-70
2023/09/09 00:47:29;;;;;;;2.50;2.40;;;20.50;99.90;;;21.04;84.30;101495.38;5041566;28;20064;-70
2023/09/09 00:49:59;;;;;;;2.20;2.10;;;20.50;99.90;;;21.08;85.01;101488.97;5043508;28;20044;-70
2023/09/09 00:52:28;;;;;;;2.20;2.10;;;20.60;99.90;;;21.04;85.17;101489.16;5050431;28;20405;-70
2023/09/09 00:54:59;;;;;;;2.90;2.80;;;20.50;99.90;;;21.04;85.29;101494.53;5050963;28;20046;-70
2023/09/09 00:57:27;;;;;;;;;;;20.50;99.90;;;21.07;84.56;101495.28;5060012;28;20136;-70
2023/09/09 00:59:55;;;;;;;2.92;2.83;;;20.50;99.90;;;21.06;84.18;101490.81;5054018;28;19920;-70
2023/09/09 01:02:24;;;;;;;4.00;3.72;;;20.60;99.90;;;21.03;83.85;101487.38;5039308;28;20045;-70
2023/09/09 01:04:53;;;;;;;2.40;2.30;;;20.60;99.90;;;21.04;83.40;101495.38;5050999;28;20083;-70
2023/09/09 01:07:21;;;;;;;2.33;2.22;;;20.50;99.90;;;21.02;84.37;101497.25;5044527;28;20070;-70
2023/09/09 01:09:50;;;;;;;2.25;2.15;;;20.50;99.90;;;21.05;85.41;101494.47;5042110;28;20053;-70
2023/09/09 01:12:22;;;;;;;2.42;2.33;;;20.50;99.90;;;21.12;85.78;101489.72;5051259;28;20143;-70
2023/09/09 01:14:50;;;;;;;2.33;2.22;;;20.60;99.90;;;21.09;86.62;101492.53;5049692;28;20446;-70
2023/09/09 01:17:19;;;;;;;5.72;5.43;;;20.50;99.90;;;21.08;87.07;101490.78;5045383;28;20053;-70
2023/09/09 01:19:49;;;;;;;2.40;2.30;;;20.60;99.90;;;21.04;87.33;101490.00;5041021;28;20045;-70
2023/09/09 01:22:20;;;;;;;2.10;2.00;;;20.50;99.90;;;20.96;87.17;101488.53;5051577;28;20045;-70
2023/09/09 01:24:49;;;;;;;2.70;2.60;;;20.40;99.90;;;20.90;87.08;101486.06;5040718;28;20045;-70
2023/09/09 01:27:17;;;;;;;2.30;2.20;;;20.40;99.90;;;20.94;87.51;101485.91;5050336;28;20483;-70
2023/09/09 01:29:46;;;;;;;2.40;2.30;;;20.40;99.90;;;20.96;86.77;101484.03;5050186;28;20045;-70
2023/09/09 01:32:14;;;;;;;2.78;2.67;;;20.40;99.90;;;20.92;86.25;101486.88;5038806;28;20494;-70
2023/09/09 01:34:43;;;;;;;3.75;3.45;;;20.40;99.90;;;20.83;85.84;101479.16;5047970;28;20091;-70
2023/09/09 01:37:11;;;;;;;2.13;2.03;;;20.30;99.90;;;20.78;85.49;101483.81;5046099;28;20768;-70
2023/09/09 01:39:41;;;;;;;2.67;2.58;;;20.30;99.90;;;20.85;84.69;101488.06;5039510;28;20128;-70
2023/09/09 01:42:10;;;;;;;2.05;1.95;;;20.30;99.90;;;20.83;83.91;101480.00;5050295;28;20136;-70
2023/09/09 01:44:39;;;;;;;2.53;2.42;;;20.30;99.90;;;20.86;83.79;101487.09;5041483;28;20045;-70
2023/09/09 01:47:09;;;;;;;2.40;2.30;;;20.30;99.90;;;20.79;83.77;101478.38;5054882;28;20084;-70
2023/09/09 01:49:37;;;;;;;2.13;2.03;;;20.30;99.90;;;20.81;84.32;101481.03;5049784;28;20051;-70
2023/09/09 01:52:06;;;;;;;2.75;2.65;;;20.30;99.90;;;20.82;84.74;101482.75;5049891;28;20398;-70
2023/09/09 01:54:35;;;;;;;2.38;2.28;;;20.30;99.90;;;20.89;84.88;101484.28;5057853;28;20135;-70
2023/09/09 01:57:05;;;;;;;2.47;2.38;;;20.30;99.90;;;20.86;84.70;101479.91;5041317;28;20498;-70
2023/09/09 01:59:34;;;;;;;2.30;2.20;;;20.40;99.90;;;20.87;85.09;101475.38;5049574;28;20482;-70
2023/09/09 02:02:02;;;;;;;2.45;2.35;;;20.40;99.90;;;20.84;85.77;101487.16;5054711;28;20410;-70
2023/09/09 02:04:30;;;;;;;3.85;3.65;;;20.30;99.90;;;20.83;85.63;101481.84;5054288;28;20048;-70
2023/09/09 02:06:59;;;;;;;2.60;2.50;;;20.30;99.90;;;20.71;85.41;101484.97;5049867;28;20402;-70
2023/09/09 02:09:27;;;;;;;2.25;2.15;;;20.20;99.90;;;20.59;85.41;101481.81;5049063;28;20110;-70
2023/09/09 02:11:55;;;;;;;2.20;2.10;;;20.20;99.90;;;20.55;84.85;101488.22;5039307;28;20052;-70
2023/09/09 02:14:25;;;;;;;2.40;2.30;;;20.10;99.90;;;20.49;83.82;101469.63;5049582;28;20403;-70
2023/09/09 02:16:54;;;;;;;2.70;2.60;;;20.10;99.90;;;20.53;83.73;101481.13;5046584;28;20040;-71
2023/09/09 02:19:24;;;;;;;2.22;2.13;;;20.10;99.90;;;20.59;84.38;101489.88;5051691;28;20438;-70
2023/09/09 02:21:53;;;;;;;2.50;2.40;;;20.10;99.90;;;20.63;84.62;101490.63;5063490;28;20493;-70
2023/09/09 02:24:22;;;;;;;2.20;2.10;;;20.10;99.90;;;20.64;85.27;101478.94;5043070;28;20041;-70
2023/09/09 02:26:50;;;;;;;2.40;2.30;;;20.10;99.90;;;20.63;86.49;101477.19;5039836;28;20521;-70
2023/09/09 02:29:18;;;;;;;2.03;1.92;;;20.20;99.90;;;20.62;88.39;101479.00;5050047;28;20044;-70
2023/09/09 02:31:48;;;;;;;2.65;2.42;;;20.10;99.90;;;20.67;88.90;101477.00;5039000;28;20486;-71
2023/09/09 02:34:16;;;;;;;2.30;2.20;;;20.20;99.90;;;20.69;89.04;101469.75;5069415;28;20449;-70
2023/09/09 02:37:06;;;;;;;2.20;2.10;;;20.20;99.90;;;20.76;89.47;101466.84;5049351;28;20119;-70
2023/09/09 02:39:36;;;;;;;2.85;2.75;;;20.20;99.90;;;20.72;89.70;101476.84;5039568;28;20044;-70
2023/09/09 02:42:05;;;;;;;2.23;2.13;;;20.20;99.90;;;20.69;89.93;101468.91;5043801;28;20475;-70
2023/09/09 02:44:33;;;;;;;2.30;2.20;;;20.20;99.90;;;20.66;90.25;101464.50;5046683;28;20048;-70
2023/09/09 02:47:02;;;;;;;2.60;2.50;;;20.10;99.90;;;20.79;90.72;101469.44;5066597;28;20051;-71
2023/09/09 02:49:31;;;;;;;2.45;2.35;;;20.20;99.90;;;20.76;91.07;101466.84;5038458;28;20045;-71
2023/09/09 02:51:59;;;;;;;2.33;2.22;;;20.20;99.90;;;20.79;91.18;101469.44;5068694;28;20044;-70
2023/09/09 02:54:28;;;;;;;3.25;3.05;;;20.20;99.90;;;20.75;90.92;101468.66;5038248;28;20041;-70
2023/09/09 02:56:58;;;;;;;3.13;3.03;;;20.20;99.90;;;20.67;90.56;101463.56;5050572;28;20567;-70
2023/09/09 02:59:27;;;;;;;2.60;2.50;;;20.20;99.90;;;20.64;90.18;101463.69;5046080;28;20088;-70
2023/09/09 03:01:56;;;;;;;2.75;2.65;;;20.20;99.90;;;20.71;90.54;101467.03;5042890;28;20151;-70
2023/09/09 03:04:24;;;;;;;2.67;2.58;;;20.20;99.90;;;20.71;90.85;101452.72;5068568;28;20491;-70
2023/09/09 03:06:53;;;;;;;2.28;2.17;;;20.20;99.90;;;20.77;90.48;101466.78;5036775;28;20421;-70
2023/09/09 03:09:21;;;;;;;2.25;2.15;;;20.20;99.90;;;20.79;90.30;101467.59;5045468;28;20072;-70
2023/09/09 03:11:50;;;;;;;3.70;3.50;;;20.30;99.90;;;20.85;90.47;101462.00;5045016;28;20540;-70
2023/09/09 03:14:20;;;;;;;2.30;2.20;;;20.30;99.90;;;20.81;90.37;101465.75;5037270;28;20085;-70
2023/09/09 03:16:48;;;;;;;2.40;2.30;;;20.30;99.90;;;20.84;90.73;101471.03;5037133;28;20049;-70
2023/09/09 03:19:17;;;;;;;2.30;2.20;;;20.30;99.90;;;20.96;90.85;101469.69;5048347;28;20053;-70
2023/09/09 03:21:45;;;;;;;2.42;2.33;;;20.40;99.90;;;21.06;91.32;101472.00;5045263;28;20041;-70
2023/09/09 03:24:13;;;;;;;2.50;2.40;;;20.60;99.90;;;21.10;91.35;101464.72;5036939;28;20045;-70
2023/09/09 03:26:42;;;;;;;2.10;2.00;;;20.70;99.90;;;21.13;91.77;101461.88;5048997;28;20087;-70
2023/09/09 03:29:10;;;;;;;2.30;2.20;;;20.70;99.90;;;21.11;92.05;101469.13;5056697;28;20574;-70
2023/09/09 03:31:40;;;;;;;2.42;2.33;;;20.60;99.90;;;21.12;91.86;101470.88;5052870;28;20037;-70
2023/09/09 03:34:08;;;;;;;2.43;2.33;;;20.60;99.90;;;21.14;91.72;101471.69;5048697;28;20057;-70
2023/09/09 03:36:37;;;;;;;2.30;2.20;;;20.60;99.90;;;21.06;91.96;101465.75;5063722;28;20045;-70
2023/09/09 03:39:05;;;;;;;2.10;2.00;;;20.60;99.90;;;21.04;91.89;101463.09;5041479;28;20407;-70
2023/09/09 03:41:35;;;;;;;2.50;2.40;;;20.50;99.90;;;21.06;92.13;101465.75;5039760;28;20049;-70
2023/09/09 03:44:04;;;;;;;3.33;3.10;;;20.50;99.90;;;21.08;92.59;101464.75;5048852;28;20041;-70
2023/09/09 03:46:33;;;;;;;2.65;2.55;;;20.50;99.90;;;21.21;92.65;101459.78;5048272;28;20041;-71
2023/09/09 03:49:03;;;;;;;8.95;8.32;;;20.70;99.90;;;21.03;92.33;101463.16;5041084;28;20056;-70
2023/09/09 03:51:32;;;;;;;2.40;2.30;;;20.60;99.90;;;20.95;92.05;101473.28;5048237;28;20049;-70
2023/09/09 03:54:01;;;;;;;2.35;2.25;;;20.50;99.90;;;21.02;91.89;101469.50;5047709;28;20076;-70
2023/09/09 03:56:30;;;;;;;2.30;2.20;;;20.50;99.90;;;20.99;91.47;101469.56;5036806;28;20063;-70
2023/09/09 03:58:58;;;;;;;2.53;2.42;;;20.50;99.90;;;20.97;90.02;101476.81;5067481;28;20220;-70
2023/09/09 04:01:29;;;;;;;3.00;2.83;;;20.50;99.90;;;20.84;88.64;101471.03;5053040;28;20046;-70
2023/09/09 04:03:58;;;;;;;2.33;2.22;;;20.40;99.90;;;20.83;88.30;101476.47;5048587;28;20060;-70
2023/09/09 04:06:28;;;;;;;2.45;2.35;;;20.40;99.90;;;20.80;87.58;101473.88;5037838;28;20053;-70
2023/09/09 04:08:57;;;;;;;;;;;20.30;99.90;;;20.82;87.43;101483.66;5051233;28;20045;-70
2023/09/09 04:11:25;;;;;;;2.60;2.50;;;20.40;99.90;;;20.78;87.15;101484.69;5052513;28;20344;-70
2023/09/09 04:13:54;;;;;;;2.53;2.42;;;20.30;99.90;;;20.86;86.93;101487.09;5048891;28;20052;-70
2023/09/09 04:16:22;;;;;;;2.10;2.00;;;20.40;99.90;;;20.88;88.04;101482.53;5038470;28;20049;-70
2023/09/09 04:18:51;;;;;;;2.58;2.47;;;20.40;99.90;;;20.80;88.40;101485.50;5052575;28;20071;-70
2023/09/09 04:21:20;;;;;;;2.13;2.03;;;20.40;99.90;;;20.73;88.79;101485.81;5051998;28;20399;-71
2023/09/09 04:23:50;;;;;;;2.38;2.28;;;20.30;99.90;;;20.72;89.05;101481.34;5040286;28;20052;-70
2023/09/09 04:26:18;;;;;;;2.80;2.70;;;20.20;99.90;;;20.64;89.27;101479.81;5048640;28;20052;-71
2023/09/09 04:28:47;;;;;;;2.45;2.35;;;20.20;99.90;;;20.67;88.91;101474.31;5047310;28;20532;-70
2023/09/09 04:31:15;;;;;;;2.50;2.40;;;20.20;99.90;;;20.63;88.89;101474.50;5054898;28;20045;-70
2023/09/09 04:33:44;;;;;;;2.50;2.40;;;20.20;99.90;;;20.65;89.10;101480.69;5039356;28;20102;-70
2023/09/09 04:36:13;;;;;;;2.60;2.50;;;20.20;99.90;;;20.57;88.63;101485.47;5055939;28;20123;-70
2023/09/09 04:38:41;;;;;;;2.55;2.45;;;20.10;99.90;;;20.17;87.93;101434.88;5058518;28;20038;-70
2023/09/09 04:41:12;;;;;;;2.20;2.10;;;20.00;99.90;;;20.39;88.76;101480.72;5067700;28;20045;-70
2023/09/09 04:43:40;;;;;;;2.63;2.53;;;19.90;99.90;;;20.44;89.14;101482.31;5039895;28;20095;-71
2023/09/09 04:46:09;;;;;;;2.20;2.10;;;19.90;99.90;;;20.36;88.03;101481.72;5071395;28;20048;-70
2023/09/09 04:48:37;;;;;;;3.10;3.00;;;19.90;99.90;;;20.43;87.69;101491.34;5051394;28;20136;-70
2023/09/09 04:51:06;;;;;;;3.10;2.90;;;19.90;99.90;;;20.46;87.35;101496.59;5050941;28;20074;-70
2023/09/09 04:53:34;;;;;;;2.45;2.35;;;20.00;99.90;;;20.30;87.34;101478.38;5041299;28;20049;-70
2023/09/09 04:56:04;;;;;;;2.55;2.45;;;19.90;99.90;;;20.42;86.71;101496.78;5045010;28;20047;-70
2023/09/09 04:58:34;;;;;;;2.55;2.45;;;20.00;99.90;;;20.35;86.38;101498.78;5048112;28;20375;-70
2023/09/09 05:01:04;;;;;;;2.45;2.35;;;19.90;99.90;;;20.39;87.12;101492.38;5068354;28;20083;-71
2023/09/09 05:03:32;;;;;;;2.17;2.08;;;19.90;99.90;;;20.42;87.82;101494.09;5039722;28;20041;-70
2023/09/09 05:06:00;;;;;;;2.42;2.33;;;19.90;99.90;;;20.39;87.98;101499.53;5055227;28;20403;-71
2023/09/09 05:08:29;;;;;;;2.35;2.25;;;19.90;99.90;;;20.34;88.62;101496.16;5050718;28;20461;-70
2023/09/09 05:10:57;;;;;;;2.78;2.67;;;19.90;99.90;;;20.32;89.18;101498.00;5049943;28;20186;-70
2023/09/09 05:13:26;;;;;;;2.50;2.40;;;19.90;99.90;;;20.37;89.24;101498.72;5042165;28;20044;-70
2023/09/09 05:15:57;;;;;;;2.42;2.33;;;19.90;99.90;;;20.35;89.41;101493.41;5050889;28;20395;-71
2023/09/09 05:18:25;;;;;;;3.05;2.95;;;19.90;99.90;;;20.25;90.16;101502.72;5049343;28;20136;-70
2023/09/09 05:20:56;;;;;;;2.28;2.17;;;19.70;99.90;;;20.21;90.72;101501.06;5053976;28;20449;-71
2023/09/09 05:23:25;;;;;;;2.33;2.22;;;19.70;99.90;;;20.22;90.72;101502.81;5047355;28;20048;-70
2023/09/09 05:25:53;;;;;;;2.33;2.22;;;19.70;99.90;;;20.29;89.90;101501.69;5045850;28;20111;-70
2023/09/09 05:28:22;;;;;;;2.50;2.40;;;19.70;99.90;;;20.23;88.32;101504.56;5050686;28;20045;-71
2023/09/09 05:30:50;;;;;;;2.63;2.53;;;19.80;99.90;;;20.26;87.60;101501.78;5039155;28;20051;-71
2023/09/09 05:33:20;;;;;;;2.28;2.17;;;19.80;99.90;;;20.36;87.37;101500.53;5047136;28;20085;-71
2023/09/09 05:35:51;;;;;;;2.20;2.10;;;19.90;99.90;;;20.47;88.52;101500.16;5047533;28;20057;-71
2023/09/09 05:38:19;;;;;;;2.30;2.20;;;20.00;99.90;;;20.63;89.56;101507.63;5050678;28;20048;-71
2023/09/09 05:40:48;;;;;;;2.42;2.33;;;20.20;99.90;;;20.71;90.28;101501.09;5050305;28;20046;-71
2023/09/09 05:43:16;;;;;;;2.17;2.08;;;20.20;99.90;;;20.62;90.32;101496.94;5043804;28;20068;-71
2023/09/09 05:45:45;;;;;;;2.30;2.20;;;20.20;99.90;;;20.63;90.27;101502.25;5050290;28;20139;-70
2023/09/09 05:48:13;;;;;;;2.10;2.00;;;20.10;99.90;;;20.60;90.75;101498.78;5049850;28;20482;-71
2023/09/09 05:50:43;;;;;;;2.35;2.25;;;20.10;99.90;;;20.78;91.04;101503.53;5038675;28;20120;-71
2023/09/09 05:53:12;;;;;;;2.70;2.60;;;20.30;99.90;;;20.80;91.26;101500.78;5070442;28;20048;-70
2023/09/09 05:55:40;;;;;;;3.53;3.38;;;20.30;99.90;;;20.91;91.39;101495.88;5041119;28;20087;-70
2023/09/09 05:58:09;;;;;;;2.42;2.33;;;20.40;99.90;;;21.00;91.10;101501.78;5051070;28;20557;-70
2023/09/09 06:00:37;;;;;;;2.58;2.47;;;20.50;99.90;;;21.10;91.16;101505.06;5049723;28;20404;-70
2023/09/09 06:03:06;;;;;;;2.40;2.30;;;20.60;99.90;;;21.15;89.99;101513.84;5043639;28;20044;-70
2023/09/09 06:05:35;;;;;;;2.40;2.30;;;20.70;99.90;;;21.17;88.54;101510.16;5049403;28;20037;-70
2023/09/09 06:08:05;;;;;;;2.50;2.40;;;20.80;99.90;;;21.31;88.48;101509.63;5050274;28;20132;-70
2023/09/09 06:10:33;;;;;;;2.40;2.30;;;20.80;99.90;;;21.48;88.56;101507.16;5055581;28;20448;-70
2023/09/09 06:13:02;;;;;;;2.63;2.53;;;20.90;99.90;;;21.58;89.03;101509.41;5052885;28;20071;-70
2023/09/09 06:15:31;;;;;;;2.25;2.15;;;21.10;99.90;;;21.80;88.65;101524.72;5039178;28;20053;-70
2023/09/09 06:17:59;;;;;;;2.20;2.10;;;21.30;99.90;;;22.02;88.28;101521.16;5050306;28;20057;-70
2023/09/09 06:20:28;;;;;;;2.53;2.42;;;21.50;99.90;;;22.25;87.78;101521.06;5039514;28;20049;-70
2023/09/09 06:22:57;;;;;;;2.20;2.10;;;21.70;99.90;;;22.44;86.84;101523.84;5069121;28;20053;-70
2023/09/09 06:25:27;;;;;;;4.43;4.13;;;21.90;99.90;;;22.70;85.66;101528.16;5049323;28;20037;-70
2023/09/09 06:27:56;;;;;;;2.22;2.13;;;22.20;99.90;;;22.89;84.60;101532.69;5049221;28;20053;-71
2023/09/09 06:30:24;;;;;;;2.45;2.35;;;22.40;99.90;;;23.08;83.79;101536.28;5041488;28;20079;-70
2023/09/09 06:32:53;;;;;;;2.33;2.22;;;22.60;99.90;;;23.35;83.57;101542.28;5049414;28;20148;-70
2023/09/09 06:35:22;;;;;;;2.33;2.22;;;22.90;99.90;;;23.66;83.22;101550.69;5049646;28;20407;-70
2023/09/09 06:37:50;;;;;;;2.53;2.38;;;23.20;99.90;;;23.88;82.46;101542.44;5033068;28;20403;-70
2023/09/09 06:40:18;;;;;;;1.73;1.73;;;23.40;99.90;;;24.10;82.08;101549.44;5041251;28;20169;-70
2023/09/09 06:42:48;;;;;;;2.17;2.08;;;23.70;99.90;;;24.34;81.54;101551.88;5041323;28;20100;-70
2023/09/09 06:45:17;;;;;;;2.00;1.90;;;23.90;99.90;;;24.56;80.41;101555.25;5065158;28;20048;-71
2023/09/09 06:47:46;;;;;;;2.35;2.25;;;24.10;99.90;;;24.69;79.55;101559.97;5049539;28;20073;-71
2023/09/09 06:50:15;;;;;;;2.00;1.90;;;24.30;99.90;;;24.85;79.84;101566.34;5042139;28;20530;-71
2023/09/09 06:52:43;;;;;;;1.40;1.40;;;24.40;99.90;;;25.03;79.28;101564.50;5040441;28;20076;-70
2023/09/09 06:55:12;;;;;;;1.60;1.60;;;24.60;99.90;;;25.32;78.60;101568.38;5049499;28;20048;-71
2023/09/09 06:57:40;;;;;;;2.00;1.90;;;24.90;99.90;;;25.44;77.61;101567.72;5037963;28;20098;-70
2023/09/09 07:00:14;;;;;;;2.03;1.98;;;25.00;99.90;;;25.66;76.95;101571.00;5044765;28;20054;-70
2023/09/09 07:02:43;;;;;;;1.50;1.50;;;25.20;99.90;;;25.87;76.96;101564.38;5046692;28;20040;-70
2023/09/09 07:05:16;;;;;;;2.78;2.58;;;25.50;99.90;;;25.87;76.76;101559.84;5036067;28;20495;-71
2023/09/09 07:07:44;;;;;;;1.60;1.60;;;25.50;99.90;;;26.10;76.31;101574.81;5046489;28;20060;-71
2023/09/09 07:10:13;;;;;;;2.42;2.33;;;25.70;99.90;;;26.28;76.34;101572.88;5043447;28;20132;-70
2023/09/09 07:12:42;;;;;;;1.63;1.63;;;25.80;99.90;;;26.44;75.59;101569.16;5038682;28;20057;-70
2023/09/09 07:15:11;;;;;;;1.52;1.52;;;26.00;99.90;;;26.64;75.42;101577.03;5048745;28;20978;-71
2023/09/09 07:17:40;;;;;;;1.40;1.40;;;26.20;99.90;;;26.83;74.71;101582.25;5039740;28;20076;-71
2023/09/09 07:20:09;;;;;;;1.65;1.65;;;26.40;99.90;;;27.03;74.48;101581.03;5041004;28;20042;-71
2023/09/09 07:22:38;;;;;;;1.25;1.25;;;26.60;99.90;;;27.18;74.10;101586.41;5047719;28;20560;-71
2023/09/09 07:25:07;;;;;;;1.20;1.20;;;26.80;99.90;;;27.25;74.25;101587.78;5036311;28;20079;-71
2023/09/09 07:27:36;;;;;;;1.83;1.80;;;26.80;99.90;;;27.33;73.99;101584.63;5045018;28;20049;-71
2023/09/09 07:30:06;;;;;;;1.45;1.45;;;26.90;99.90;;;27.40;74.03;101595.00;5044428;28;20570;-71
2023/09/09 07:32:36;;;;;;;1.40;1.40;;;27.00;99.90;;;27.54;73.38;101596.84;5036747;28;20049;-71
2023/09/09 07:35:06;;;;;;;2.30;2.20;;;27.10;99.90;;;27.63;73.39;101594.44;5037069;28;20457;-71
2023/09/09 07:37:34;;;;;;;12.15;2.13;;;27.30;99.90;;;27.85;72.86;101596.66;5058983;28;20053;-71
2023/09/09 07:40:04;;;;;;;1.60;1.60;;;27.50;99.90;;;27.96;72.52;101591.41;5045250;28;20083;-71
2023/09/09 07:42:32;;;;;;;1.38;1.38;;;27.60;99.90;;;27.94;71.64;101597.88;5036185;28;20033;-71
2023/09/09 07:45:00;;;;;;;2.05;1.95;;;27.60;99.90;;;28.22;71.88;101590.56;5047767;28;20050;-71
2023/09/09 07:47:29;;;;;;;1.30;1.30;;;27.80;99.90;;;28.44;70.72;101593.59;5040694;28;20065;-71
2023/09/09 07:49:58;;;;;;;1.40;1.40;;;28.10;99.90;;;28.64;69.70;101603.19;5052743;28;20103;-71
2023/09/09 07:52:28;;;;;;;1.40;1.40;;;28.30;99.90;;;28.81;68.57;101612.94;5036740;28;20052;-71
2023/09/09 07:54:57;;;;;;;1.33;1.33;;;28.50;99.90;;;28.93;67.33;101602.06;5046895;28;20128;-71
2023/09/09 07:57:26;;;;;;;1.13;1.13;;;28.60;99.90;;;29.04;66.80;101604.91;5044947;28;20437;-71
2023/09/09 07:59:54;;;;;;;1.15;1.15;;;28.80;99.90;;;29.14;65.77;101611.53;5042626;28;20154;-71
2023/09/09 08:02:23;;;;;;;1.00;1.00;;;28.80;99.90;;;29.22;65.77;101614.59;5052713;28;20045;-71
2023/09/09 08:04:51;;;;;;;1.55;1.55;;;28.90;99.90;;;29.39;65.16;101606.09;5043088;28;20049;-71
2023/09/09 08:07:21;;;;;;;1.40;1.40;;;29.10;99.90;;;29.56;64.34;101613.03;5046329;28;20099;-71
2023/09/09 08:09:50;;;;;;;4.80;4.50;;;29.30;99.90;;;29.69;63.28;101611.22;5051518;28;20051;-71
2023/09/09 08:12:18;;;;;;;1.33;1.33;;;29.40;99.90;;;29.87;62.09;101607.16;5040085;28;20095;-71
2023/09/09 08:14:47;;;;;;;1.20;1.20;;;29.60;99.90;;;30.04;61.20;101604.06;5049662;28;20037;-71
2023/09/09 08:17:15;;;;;;;1.10;1.10;;;29.80;99.90;;;30.20;61.00;101611.97;5046912;28;20053;-72
2023/09/09 08:19:44;;;;;;;1.30;1.30;;;29.90;99.90;;;30.43;60.58;101611.16;5040651;28;20524;-71
2023/09/09 08:22:12;;;;;;;1.10;1.10;;;30.20;99.90;;;30.60;59.07;101610.78;5051732;28;20049;-71
2023/09/09 08:24:42;;;;;;;0.90;0.90;;;30.30;99.90;;;30.77;57.45;101620.41;5042401;28;20045;-72
2023/09/09 08:27:10;;;;;;;1.17;1.17;;;30.50;99.90;;;30.91;54.52;101618.38;5044359;28;20077;-72
2023/09/09 08:29:38;;;;;;;1.00;1.00;;;30.70;99.90;;;31.09;55.40;101627.00;5051589;28;20059;-71
2023/09/09 08:32:07;;;;;;;1.00;1.00;;;30.80;99.90;;;31.15;53.76;101615.59;5039687;28;20049;-72
2023/09/09 08:34:37;;;;;;;0.90;0.90;;;31.00;99.90;;;31.47;53.02;101633.13;5049010;28;20042;-72
2023/09/09 08:37:05;;;;;;;1.00;1.00;;;31.20;99.90;;;31.57;50.68;101634.13;5047806;28;20049;-72
2023/09/09 08:39:33;;;;;;;1.13;1.13;;;31.30;99.90;;;31.72;48.85;101641.13;5039391;28;20117;-72
2023/09/09 08:42:16;;;;;;;0.80;0.80;;;31.50;99.90;;;31.66;48.14;101627.94;5052016;28;20144;-72
2023/09/09 08:44:59;;;;;;;0.95;0.95;;;31.50;99.90;;;31.73;46.84;101639.22;5035906;28;20128;-72
2023/09/09 08:47:30;;;;;;;1.23;1.23;;;31.40;99.90;;;31.83;45.93;101637.50;5052028;28;20040;-72
2023/09/09 08:50:01;;;;;;;1.10;1.10;;;31.60;99.90;;;32.02;45.37;101645.13;5055771;28;20076;-72
2023/09/09 08:52:29;;;;;;;0.80;0.80;;;31.70;99.90;;;32.19;46.73;101652.84;5046803;28;20045;-72
2023/09/09 08:54:59;;;;;;;1.00;1.00;;;31.90;99.90;;;32.06;45.38;101646.59;5049208;28;20145;-72
2023/09/09 08:57:31;;;;;;;0.82;0.82;;;31.80;99.90;;;31.69;43.67;101624.94;5038988;28;20042;-72
2023/09/09 09:00:03;;;;;;;0.90;0.90;;;31.50;99.90;;;31.89;46.46;101642.47;5050111;28;20060;-72
2023/09/09 09:02:34;;;;;;;0.90;0.90;;;31.60;99.90;;;32.12;47.59;101644.25;5045911;28;20049;-72
2023/09/09 09:05:05;;;;;;;0.90;0.90;;;31.80;99.90;;;32.24;45.87;101637.75;5040571;28;20051;-72
2023/09/09 09:07:35;;;;;;;0.90;0.90;;;31.90;99.90;;;32.10;44.57;101654.44;5051216;28;20037;-72
2023/09/09 09:10:04;;;;;;;0.80;0.80;;;31.80;99.90;;;32.41;45.78;101658.25;5042774;28;20144;-70
2023/09/09 09:12:37;;;;;;;1.17;1.17;;;32.10;99.90;;;32.32;45.70;101631.66;5043408;28;20108;-72
2023/09/09 09:15:06;;;;;;;0.88;0.88;;;32.20;99.90;;;32.54;46.14;101653.56;5050600;28;20136;-72
2023/09/09 09:17:39;;;;;;;0.73;0.73;;;32.30;99.90;;;32.62;46.93;101651.91;5051094;28;20422;-71
2023/09/09 09:20:25;;;;;;;1.60;1.50;;;32.30;99.90;;;32.65;48.07;101656.25;5044412;28;20049;-72
2023/09/09 09:22:57;;;;;;;1.02;1.02;;;32.40;99.90;;;32.58;48.34;101658.63;5039416;28;20103;-72
2023/09/09 09:25:27;;;;;;;0.90;0.90;;;32.30;99.90;;;32.61;47.92;101655.66;5050873;28;20049;-72
2023/09/09 09:28:00;;;;;;;0.90;0.90;;;32.40;99.90;;;32.84;47.83;101664.66;5034737;28;20549;-72
2023/09/09 09:30:29;;;;;;;0.80;0.80;;;32.50;99.90;;;33.09;46.69;101667.09;5048014;28;20048;-72
2023/09/09 09:32:58;;;;;;;0.90;0.90;;;32.80;99.90;;;33.04;45.64;101663.88;5038690;28;20052;-71
2023/09/09 09:35:29;;;;;;;0.95;0.95;;;32.80;99.90;;;33.28;44.78;101667.22;5049629;28;20061;-71
2023/09/09 09:37:59;;;;;;;0.85;0.85;;;33.00;99.90;;;33.58;43.69;101663.72;5044095;28;20368;-72
2023/09/09 09:40:28;;;;;;;0.80;0.80;;;33.20;99.90;;;33.83;43.16;101666.03;5040156;28;20124;-72
2023/09/09 09:42:59;;;;;;;0.83;0.83;;;33.50;99.90;;;33.98;43.03;101664.69;5050163;28;20508;-72
2023/09/09 09:45:29;;;;;;;0.80;0.80;;;33.70;99.90;;;34.01;42.66;101672.63;5040880;28;20052;-72
2023/09/09 09:47:59;;;;;;;;;;;33.80;99.90;;;33.77;42.13;101644.59;5043496;28;20048;-72
2023/09/09 09:50:30;;;;;;;;;;;33.70;99.90;;;33.95;42.03;101667.69;5050348;28;20266;-72
2023/09/09 09:53:01;;;;;;;0.70;0.70;;;33.70;99.90;;;33.67;43.54;101651.91;5050755;28;20016;-72
2023/09/09 09:55:31;;;;;;;0.80;0.80;;;33.50;99.90;;;33.87;42.02;101664.75;5042922;28;20095;-71
2023/09/09 09:58:02;;;;;;;1.10;1.10;;;33.60;99.90;;;34.00;42.81;101659.91;5041816;28;20219;-72
2023/09/09 10:00:31;;;;;;;0.85;0.85;;;33.70;99.90;;;34.11;41.89;101661.72;5050551;28;20096;-71
2023/09/09 10:03:02;;;;;;;0.95;0.95;;;33.80;99.90;;;33.69;41.55;101663.63;5039256;28;20051;-72
2023/09/09 10:05:31;;;;;;;1.17;1.13;;;33.60;99.90;;;33.88;42.15;101660.09;5044576;28;20042;-72
2023/09/09 10:08:11;;;;;;;2.53;2.35;;;33.60;99.90;;;33.93;42.65;101655.97;5048271;28;20152;-72
2023/09/09 10:10:42;;;;;;;;;;;33.60;99.90;;;34.09;41.73;101656.34;5038048;28;20103;-71
2023/09/09 10:13:20;;;;;;;1.13;1.08;;;33.80;99.90;;;34.07;40.96;101661.09;5046220;28;19975;-72
2023/09/09 10:15:49;;;;;;;0.85;0.85;;;33.80;99.30;;;33.87;41.43;101653.75;5047484;28;20056;-72
2023/09/09 10:18:18;;;;;;;1.00;1.00;;;33.70;99.20;;;34.12;42.21;101660.69;5037443;28;20033;-71
2023/09/09 10:20:47;;;;;;;0.80;0.80;;;33.80;99.90;;;34.35;41.56;101660.34;5047795;28;20103;-72